sensor_id;sensor_type;location;lat;lon;timestamp;P1;durP1;ratioP1;P2;durP2;ratioP2
37593;SDS011;23441;50.856;6.076;2024-02-21T00:02:18;21.65;;;8.70;;
37593;SDS011;23441;50.856;6.076;2024-02-21T00:05:04;33.50;;;10.50;;
37593;SDS011;23441;50.856;6.076;2024-02-21T00:07:50;23.05;;;9.88;;
37593;SDS011;23441;50.856;6.076;2024-02-21T00:10:36;24.83;;;10.00;;
37593;SDS011;23441;50.856;6.076;2024-02-21T00:13:22;28.25;;;10.38;;
37593;SDS011;23441;50.856;6.076;2024-02-21T00:16:08;21.25;;;9.05;;
37593;SDS011;23441;50.856;6.076;2024-02-21T00:18:54;22.67;;;9.85;;
37593;SDS011;23441;50.856;6.076;2024-02-21T00:21:40;29.90;;;11.18;;
37593;SDS011;23441;50.856;6.076;2024-02-21T00:24:26;29.48;;;10.82;;
37593;SDS011;23441;50.856;6.076;2024-02-21T00:27:12;30.38;;;11.07;;
37593;SDS011;23441;50.856;6.076;2024-02-21T00:29:58;25.30;;;10.00;;
37593;SDS011;23441;50.856;6.076;2024-02-21T00:32:44;25.63;;;11.20;;
37593;SDS011;23441;50.856;6.076;2024-02-21T00:35:29;33.35;;;11.23;;
37593;SDS011;23441;50.856;6.076;2024-02-21T00:38:15;25.95;;;11.07;;
37593;SDS011;23441;50.856;6.076;2024-02-21T00:41:01;23.85;;;9.77;;
37593;SDS011;23441;50.856;6.076;2024-02-21T00:43:47;26.58;;;11.20;;
37593;SDS011;23441;50.856;6.076;2024-02-21T00:46:35;33.50;;;11.10;;
37593;SDS011;23441;50.856;6.076;2024-02-21T00:49:24;27.00;;;10.93;;
37593;SDS011;23441;50.856;6.076;2024-02-21T00:52:09;24.98;;;10.00;;
37593;SDS011;23441;50.856;6.076;2024-02-21T00:54:55;29.27;;;10.18;;
37593;SDS011;23441;50.856;6.076;2024-02-21T00:57:41;22.40;;;10.10;;
37593;SDS011;23441;50.856;6.076;2024-02-21T01:00:27;29.15;;;11.02;;
37593;SDS011;23441;50.856;6.076;2024-02-21T01:03:13;27.33;;;10.45;;
37593;SDS011;23441;50.856;6.076;2024-02-21T01:05:59;22.08;;;10.13;;
37593;SDS011;23441;50.856;6.076;2024-02-21T01:08:46;21.88;;;10.32;;
37593;SDS011;23441;50.856;6.076;2024-02-21T01:11:33;30.73;;;11.35;;
37593;SDS011;23441;50.856;6.076;2024-02-21T01:14:19;26.50;;;10.63;;
37593;SDS011;23441;50.856;6.076;2024-02-21T01:17:05;26.75;;;11.65;;
37593;SDS011;23441;50.856;6.076;2024-02-21T01:19:51;25.58;;;9.98;;
37593;SDS011;23441;50.856;6.076;2024-02-21T01:22:37;27.33;;;10.52;;
37593;SDS011;23441;50.856;6.076;2024-02-21T01:25:23;29.20;;;11.77;;
37593;SDS011;23441;50.856;6.076;2024-02-21T01:28:09;21.55;;;10.48;;
37593;SDS011;23441;50.856;6.076;2024-02-21T01:30:55;19.83;;;9.85;;
37593;SDS011;23441;50.856;6.076;2024-02-21T01:33:41;22.75;;;10.10;;
37593;SDS011;23441;50.856;6.076;2024-02-21T01:36:28;21.42;;;10.02;;
37593;SDS011;23441;50.856;6.076;2024-02-21T01:39:13;22.63;;;9.88;;
37593;SDS011;23441;50.856;6.076;2024-02-21T01:41:59;27.98;;;10.30;;
37593;SDS011;23441;50.856;6.076;2024-02-21T01:44:45;30.00;;;10.55;;
37593;SDS011;23441;50.856;6.076;2024-02-21T01:47:31;24.98;;;9.45;;
37593;SDS011;23441;50.856;6.076;2024-02-21T01:50:18;25.30;;;9.27;;
37593;SDS011;23441;50.856;6.076;2024-02-21T01:53:04;22.58;;;10.07;;
37593;SDS011;23441;50.856;6.076;2024-02-21T01:55:52;27.60;;;9.73;;
37593;SDS011;23441;50.856;6.076;2024-02-21T01:58:39;20.48;;;9.57;;
37593;SDS011;23441;50.856;6.076;2024-02-21T02:01:27;21.58;;;8.82;;
37593;SDS011;23441;50.856;6.076;2024-02-21T02:04:14;26.50;;;10.20;;
37593;SDS011;23441;50.856;6.076;2024-02-21T02:07:02;25.08;;;10.18;;
37593;SDS011;23441;50.856;6.076;2024-02-21T02:09:49;23.95;;;9.40;;
37593;SDS011;23441;50.856;6.076;2024-02-21T02:12:35;20.90;;;9.35;;
37593;SDS011;23441;50.856;6.076;2024-02-21T02:15:21;20.83;;;8.85;;
37593;SDS011;23441;50.856;6.076;2024-02-21T02:18:07;29.92;;;10.63;;
37593;SDS011;23441;50.856;6.076;2024-02-21T02:20:53;19.80;;;9.27;;
37593;SDS011;23441;50.856;6.076;2024-02-21T02:23:39;23.45;;;8.18;;
37593;SDS011;23441;50.856;6.076;2024-02-21T02:26:26;19.45;;;9.48;;
37593;SDS011;23441;50.856;6.076;2024-02-21T02:29:12;18.30;;;8.93;;
37593;SDS011;23441;50.856;6.076;2024-02-21T02:31:58;16.60;;;8.05;;
37593;SDS011;23441;50.856;6.076;2024-02-21T02:34:44;22.52;;;9.95;;
37593;SDS011;23441;50.856;6.076;2024-02-21T02:37:30;22.55;;;8.82;;
37593;SDS011;23441;50.856;6.076;2024-02-21T02:40:17;23.17;;;9.65;;
37593;SDS011;23441;50.856;6.076;2024-02-21T02:43:05;23.35;;;9.93;;
37593;SDS011;23441;50.856;6.076;2024-02-21T02:45:51;23.70;;;8.45;;
37593;SDS011;23441;50.856;6.076;2024-02-21T02:48:37;16.58;;;8.70;;
37593;SDS011;23441;50.856;6.076;2024-02-21T02:51:24;24.10;;;8.70;;
37593;SDS011;23441;50.856;6.076;2024-02-21T02:54:10;23.00;;;9.38;;
37593;SDS011;23441;50.856;6.076;2024-02-21T02:56:56;23.50;;;9.48;;
37593;SDS011;23441;50.856;6.076;2024-02-21T02:59:42;22.02;;;8.20;;
37593;SDS011;23441;50.856;6.076;2024-02-21T03:02:35;19.45;;;8.38;;
37593;SDS011;23441;50.856;6.076;2024-02-21T03:05:25;22.05;;;9.32;;
37593;SDS011;23441;50.856;6.076;2024-02-21T03:08:10;26.67;;;8.73;;
37593;SDS011;23441;50.856;6.076;2024-02-21T03:10:56;20.75;;;9.13;;
37593;SDS011;23441;50.856;6.076;2024-02-21T03:13:42;18.67;;;9.15;;
37593;SDS011;23441;50.856;6.076;2024-02-21T03:16:28;20.65;;;9.13;;
37593;SDS011;23441;50.856;6.076;2024-02-21T03:19:14;22.00;;;8.25;;
37593;SDS011;23441;50.856;6.076;2024-02-21T03:22:00;24.42;;;10.98;;
37593;SDS011;23441;50.856;6.076;2024-02-21T03:24:46;20.45;;;8.43;;
37593;SDS011;23441;50.856;6.076;2024-02-21T03:27:32;21.30;;;9.43;;
37593;SDS011;23441;50.856;6.076;2024-02-21T03:30:17;20.85;;;9.25;;
37593;SDS011;23441;50.856;6.076;2024-02-21T03:33:03;21.80;;;8.77;;
37593;SDS011;23441;50.856;6.076;2024-02-21T03:35:50;25.70;;;9.27;;
37593;SDS011;23441;50.856;6.076;2024-02-21T03:38:36;22.15;;;9.27;;
37593;SDS011;23441;50.856;6.076;2024-02-21T03:41:22;29.35;;;9.10;;
37593;SDS011;23441;50.856;6.076;2024-02-21T03:44:07;21.08;;;8.95;;
37593;SDS011;23441;50.856;6.076;2024-02-21T03:46:54;20.55;;;9.63;;
37593;SDS011;23441;50.856;6.076;2024-02-21T03:49:40;15.70;;;8.38;;
37593;SDS011;23441;50.856;6.076;2024-02-21T03:52:25;23.13;;;8.27;;
37593;SDS011;23441;50.856;6.076;2024-02-21T03:55:11;19.38;;;7.85;;
37593;SDS011;23441;50.856;6.076;2024-02-21T03:57:57;17.23;;;8.60;;
37593;SDS011;23441;50.856;6.076;2024-02-21T04:00:43;15.38;;;8.38;;
37593;SDS011;23441;50.856;6.076;2024-02-21T04:03:30;12.10;;;7.75;;
37593;SDS011;23441;50.856;6.076;2024-02-21T04:06:16;19.95;;;8.30;;
37593;SDS011;23441;50.856;6.076;2024-02-21T04:09:02;24.58;;;9.38;;
37593;SDS011;23441;50.856;6.076;2024-02-21T04:11:48;19.38;;;8.40;;
37593;SDS011;23441;50.856;6.076;2024-02-21T04:14:34;17.98;;;9.15;;
37593;SDS011;23441;50.856;6.076;2024-02-21T04:17:20;18.60;;;7.78;;
37593;SDS011;23441;50.856;6.076;2024-02-21T04:20:06;23.35;;;8.48;;
37593;SDS011;23441;50.856;6.076;2024-02-21T04:23:00;17.90;;;8.55;;
37593;SDS011;23441;50.856;6.076;2024-02-21T04:25:46;22.40;;;8.88;;
37593;SDS011;23441;50.856;6.076;2024-02-21T04:28:32;16.02;;;8.27;;
37593;SDS011;23441;50.856;6.076;2024-02-21T04:31:18;17.38;;;8.52;;
37593;SDS011;23441;50.856;6.076;2024-02-21T04:34:05;17.63;;;7.35;;
37593;SDS011;23441;50.856;6.076;2024-02-21T04:36:51;20.63;;;7.95;;
37593;SDS011;23441;50.856;6.076;2024-02-21T04:39:37;13.65;;;7.43;;
37593;SDS011;23441;50.856;6.076;2024-02-21T04:42:23;22.75;;;8.55;;
37593;SDS011;23441;50.856;6.076;2024-02-21T04:45:09;17.92;;;7.47;;
37593;SDS011;23441;50.856;6.076;2024-02-21T04:47:55;21.60;;;6.85;;
37593;SDS011;23441;50.856;6.076;2024-02-21T04:50:41;13.63;;;7.18;;
37593;SDS011;23441;50.856;6.076;2024-02-21T04:53:27;16.30;;;7.30;;
37593;SDS011;23441;50.856;6.076;2024-02-21T04:56:13;16.33;;;7.18;;
37593;SDS011;23441;50.856;6.076;2024-02-21T04:58:59;16.35;;;6.63;;
37593;SDS011;23441;50.856;6.076;2024-02-21T05:01:45;15.88;;;7.22;;
37593;SDS011;23441;50.856;6.076;2024-02-21T05:04:31;14.40;;;6.57;;
37593;SDS011;23441;50.856;6.076;2024-02-21T05:07:17;16.23;;;6.45;;
37593;SDS011;23441;50.856;6.076;2024-02-21T05:10:04;15.38;;;7.20;;
37593;SDS011;23441;50.856;6.076;2024-02-21T05:12:52;10.88;;;6.43;;
37593;SDS011;23441;50.856;6.076;2024-02-21T05:15:38;12.48;;;6.13;;
37593;SDS011;23441;50.856;6.076;2024-02-21T05:18:24;18.73;;;6.80;;
37593;SDS011;23441;50.856;6.076;2024-02-21T05:21:10;15.02;;;6.55;;
37593;SDS011;23441;50.856;6.076;2024-02-21T05:23:56;16.33;;;6.55;;
37593;SDS011;23441;50.856;6.076;2024-02-21T05:26:42;11.23;;;6.18;;
37593;SDS011;23441;50.856;6.076;2024-02-21T05:29:28;13.82;;;6.13;;
37593;SDS011;23441;50.856;6.076;2024-02-21T05:32:13;15.25;;;6.13;;
37593;SDS011;23441;50.856;6.076;2024-02-21T05:34:59;14.77;;;6.32;;
37593;SDS011;23441;50.856;6.076;2024-02-21T05:37:46;16.02;;;6.45;;
37593;SDS011;23441;50.856;6.076;2024-02-21T05:40:33;18.63;;;7.05;;
37593;SDS011;23441;50.856;6.076;2024-02-21T05:43:19;12.98;;;6.57;;
37593;SDS011;23441;50.856;6.076;2024-02-21T05:46:05;13.75;;;5.90;;
37593;SDS011;23441;50.856;6.076;2024-02-21T05:48:51;17.77;;;6.57;;
37593;SDS011;23441;50.856;6.076;2024-02-21T05:51:37;17.58;;;6.25;;
37593;SDS011;23441;50.856;6.076;2024-02-21T05:54:23;17.27;;;6.50;;
37593;SDS011;23441;50.856;6.076;2024-02-21T05:57:09;20.20;;;6.40;;
37593;SDS011;23441;50.856;6.076;2024-02-21T05:59:55;19.92;;;7.18;;
37593;SDS011;23441;50.856;6.076;2024-02-21T06:02:41;20.27;;;6.95;;
37593;SDS011;23441;50.856;6.076;2024-02-21T06:05:27;16.83;;;6.78;;
37593;SDS011;23441;50.856;6.076;2024-02-21T06:08:13;22.33;;;7.10;;
37593;SDS011;23441;50.856;6.076;2024-02-21T06:10:59;18.02;;;6.20;;
37593;SDS011;23441;50.856;6.076;2024-02-21T06:13:45;18.48;;;6.00;;
37593;SDS011;23441;50.856;6.076;2024-02-21T06:16:31;20.55;;;7.13;;
37593;SDS011;23441;50.856;6.076;2024-02-21T06:19:17;13.07;;;5.88;;
37593;SDS011;23441;50.856;6.076;2024-02-21T06:22:02;12.98;;;5.45;;
37593;SDS011;23441;50.856;6.076;2024-02-21T06:24:53;17.67;;;5.65;;
37593;SDS011;23441;50.856;6.076;2024-02-21T06:27:39;12.75;;;5.00;;
37593;SDS011;23441;50.856;6.076;2024-02-21T06:30:25;13.40;;;5.13;;
37593;SDS011;23441;50.856;6.076;2024-02-21T06:33:12;13.15;;;5.50;;
37593;SDS011;23441;50.856;6.076;2024-02-21T06:35:58;13.65;;;5.57;;
37593;SDS011;23441;50.856;6.076;2024-02-21T06:38:43;16.35;;;5.97;;
37593;SDS011;23441;50.856;6.076;2024-02-21T06:41:30;14.30;;;6.55;;
37593;SDS011;23441;50.856;6.076;2024-02-21T06:44:18;17.45;;;6.38;;
37593;SDS011;23441;50.856;6.076;2024-02-21T06:47:04;16.77;;;6.47;;
37593;SDS011;23441;50.856;6.076;2024-02-21T06:49:50;18.02;;;7.15;;
37593;SDS011;23441;50.856;6.076;2024-02-21T06:52:36;19.45;;;6.72;;
37593;SDS011;23441;50.856;6.076;2024-02-21T06:55:22;18.02;;;7.30;;
37593;SDS011;23441;50.856;6.076;2024-02-21T06:58:08;19.92;;;7.15;;
37593;SDS011;23441;50.856;6.076;2024-02-21T07:00:57;20.70;;;6.90;;
37593;SDS011;23441;50.856;6.076;2024-02-21T07:03:42;18.25;;;6.80;;
37593;SDS011;23441;50.856;6.076;2024-02-21T07:06:28;18.02;;;7.63;;
37593;SDS011;23441;50.856;6.076;2024-02-21T07:09:16;18.77;;;7.25;;
37593;SDS011;23441;50.856;6.076;2024-02-21T07:12:02;17.65;;;6.63;;
37593;SDS011;23441;50.856;6.076;2024-02-21T07:14:49;13.23;;;6.95;;
37593;SDS011;23441;50.856;6.076;2024-02-21T07:17:35;15.80;;;6.75;;
37593;SDS011;23441;50.856;6.076;2024-02-21T07:20:21;12.45;;;6.53;;
37593;SDS011;23441;50.856;6.076;2024-02-21T07:23:08;18.25;;;6.03;;
37593;SDS011;23441;50.856;6.076;2024-02-21T07:25:54;15.88;;;6.80;;
37593;SDS011;23441;50.856;6.076;2024-02-21T07:28:40;16.73;;;6.72;;
37593;SDS011;23441;50.856;6.076;2024-02-21T07:31:26;13.50;;;6.43;;
37593;SDS011;23441;50.856;6.076;2024-02-21T07:34:12;15.40;;;6.05;;
37593;SDS011;23441;50.856;6.076;2024-02-21T07:36:57;13.90;;;5.65;;
37593;SDS011;23441;50.856;6.076;2024-02-21T07:39:43;11.02;;;5.82;;
37593;SDS011;23441;50.856;6.076;2024-02-21T07:42:29;15.23;;;5.55;;
37593;SDS011;23441;50.856;6.076;2024-02-21T07:45:15;13.95;;;6.07;;
37593;SDS011;23441;50.856;6.076;2024-02-21T07:48:01;15.18;;;6.18;;
37593;SDS011;23441;50.856;6.076;2024-02-21T07:50:47;13.05;;;5.85;;
37593;SDS011;23441;50.856;6.076;2024-02-21T07:53:34;16.17;;;6.10;;
37593;SDS011;23441;50.856;6.076;2024-02-21T07:56:20;13.02;;;6.55;;
37593;SDS011;23441;50.856;6.076;2024-02-21T07:59:06;14.20;;;6.40;;
37593;SDS011;23441;50.856;6.076;2024-02-21T08:01:55;12.73;;;5.10;;
37593;SDS011;23441;50.856;6.076;2024-02-21T08:04:42;13.23;;;6.07;;
37593;SDS011;23441;50.856;6.076;2024-02-21T08:07:28;11.40;;;5.05;;
37593;SDS011;23441;50.856;6.076;2024-02-21T08:10:14;13.25;;;5.03;;
37593;SDS011;23441;50.856;6.076;2024-02-21T08:13:00;14.88;;;5.32;;
37593;SDS011;23441;50.856;6.076;2024-02-21T08:15:46;14.93;;;5.00;;
37593;SDS011;23441;50.856;6.076;2024-02-21T08:18:32;10.10;;;4.18;;
37593;SDS011;23441;50.856;6.076;2024-02-21T08:21:21;16.55;;;4.88;;
37593;SDS011;23441;50.856;6.076;2024-02-21T08:24:07;12.00;;;4.88;;
37593;SDS011;23441;50.856;6.076;2024-02-21T08:26:53;13.43;;;4.65;;
37593;SDS011;23441;50.856;6.076;2024-02-21T08:29:39;7.45;;;4.13;;
37593;SDS011;23441;50.856;6.076;2024-02-21T08:32:25;12.82;;;4.05;;
37593;SDS011;23441;50.856;6.076;2024-02-21T08:35:11;14.52;;;4.40;;
37593;SDS011;23441;50.856;6.076;2024-02-21T08:37:58;13.68;;;4.32;;
37593;SDS011;23441;50.856;6.076;2024-02-21T08:40:43;16.83;;;4.65;;
37593;SDS011;23441;50.856;6.076;2024-02-21T08:43:29;10.07;;;4.43;;
37593;SDS011;23441;50.856;6.076;2024-02-21T08:46:16;11.25;;;4.85;;
37593;SDS011;23441;50.856;6.076;2024-02-21T08:49:02;11.27;;;5.07;;
37593;SDS011;23441;50.856;6.076;2024-02-21T08:51:48;13.73;;;4.55;;
37593;SDS011;23441;50.856;6.076;2024-02-21T08:54:34;8.20;;;4.00;;
37593;SDS011;23441;50.856;6.076;2024-02-21T08:57:20;12.98;;;4.25;;
37593;SDS011;23441;50.856;6.076;2024-02-21T09:00:06;16.48;;;4.90;;
37593;SDS011;23441;50.856;6.076;2024-02-21T09:02:55;11.88;;;4.82;;
37593;SDS011;23441;50.856;6.076;2024-02-21T09:05:43;11.85;;;4.57;;
37593;SDS011;23441;50.856;6.076;2024-02-21T09:08:29;13.65;;;4.03;;
37593;SDS011;23441;50.856;6.076;2024-02-21T09:11:15;7.38;;;4.03;;
37593;SDS011;23441;50.856;6.076;2024-02-21T09:14:01;14.18;;;6.13;;
37593;SDS011;23441;50.856;6.076;2024-02-21T09:16:49;11.63;;;4.85;;
37593;SDS011;23441;50.856;6.076;2024-02-21T09:19:35;8.82;;;4.53;;
37593;SDS011;23441;50.856;6.076;2024-02-21T09:22:21;9.05;;;4.30;;
37593;SDS011;23441;50.856;6.076;2024-02-21T09:25:07;10.65;;;3.85;;
37593;SDS011;23441;50.856;6.076;2024-02-21T09:27:53;9.63;;;3.83;;
37593;SDS011;23441;50.856;6.076;2024-02-21T09:30:39;9.13;;;3.72;;
37593;SDS011;23441;50.856;6.076;2024-02-21T09:33:25;13.63;;;4.22;;
37593;SDS011;23441;50.856;6.076;2024-02-21T09:36:11;7.82;;;4.20;;
37593;SDS011;23441;50.856;6.076;2024-02-21T09:38:57;11.57;;;4.25;;
37593;SDS011;23441;50.856;6.076;2024-02-21T09:41:50;8.75;;;4.25;;
37593;SDS011;23441;50.856;6.076;2024-02-21T09:44:43;14.23;;;4.40;;
37593;SDS011;23441;50.856;6.076;2024-02-21T09:47:34;13.85;;;4.53;;
37593;SDS011;23441;50.856;6.076;2024-02-21T09:50:43;10.80;;;4.00;;
37593;SDS011;23441;50.856;6.076;2024-02-21T09:53:31;8.63;;;4.18;;
37593;SDS011;23441;50.856;6.076;2024-02-21T09:56:19;7.72;;;4.10;;
37593;SDS011;23441;50.856;6.076;2024-02-21T09:59:05;10.88;;;4.63;;
37593;SDS011;23441;50.856;6.076;2024-02-21T10:01:52;10.15;;;4.78;;
37593;SDS011;23441;50.856;6.076;2024-02-21T10:04:39;11.48;;;4.72;;
37593;SDS011;23441;50.856;6.076;2024-02-21T10:07:26;10.63;;;4.40;;
37593;SDS011;23441;50.856;6.076;2024-02-21T10:10:12;11.32;;;4.03;;
37593;SDS011;23441;50.856;6.076;2024-02-21T10:12:58;15.77;;;5.07;;
37593;SDS011;23441;50.856;6.076;2024-02-21T10:15:44;10.13;;;4.55;;
37593;SDS011;23441;50.856;6.076;2024-02-21T10:18:35;13.55;;;4.70;;
37593;SDS011;23441;50.856;6.076;2024-02-21T10:21:21;15.70;;;4.88;;
37593;SDS011;23441;50.856;6.076;2024-02-21T10:24:07;11.55;;;4.40;;
37593;SDS011;23441;50.856;6.076;2024-02-21T10:27:02;9.25;;;4.45;;
37593;SDS011;23441;50.856;6.076;2024-02-21T10:29:58;9.50;;;4.18;;
37593;SDS011;23441;50.856;6.076;2024-02-21T10:32:51;10.65;;;5.25;;
37593;SDS011;23441;50.856;6.076;2024-02-21T10:35:38;8.85;;;4.07;;
37593;SDS011;23441;50.856;6.076;2024-02-21T10:38:24;9.38;;;4.65;;
37593;SDS011;23441;50.856;6.076;2024-02-21T10:41:10;13.38;;;5.55;;
37593;SDS011;23441;50.856;6.076;2024-02-21T10:44:00;12.57;;;5.13;;
37593;SDS011;23441;50.856;6.076;2024-02-21T10:46:50;9.98;;;4.25;;
37593;SDS011;23441;50.856;6.076;2024-02-21T10:49:38;11.93;;;5.22;;
37593;SDS011;23441;50.856;6.076;2024-02-21T10:55:50;9.90;;;4.53;;
37593;SDS011;23441;50.856;6.076;2024-02-21T10:58:47;12.85;;;4.38;;
37593;SDS011;23441;50.856;6.076;2024-02-21T11:01:34;9.15;;;5.60;;
37593;SDS011;23441;50.856;6.076;2024-02-21T11:04:25;15.75;;;4.78;;
37593;SDS011;23441;50.856;6.076;2024-02-21T11:07:12;11.82;;;4.30;;
37593;SDS011;23441;50.856;6.076;2024-02-21T11:09:59;10.25;;;4.22;;
37593;SDS011;23441;50.856;6.076;2024-02-21T11:12:45;7.45;;;4.47;;
37593;SDS011;23441;50.856;6.076;2024-02-21T11:15:31;10.73;;;5.13;;
37593;SDS011;23441;50.856;6.076;2024-02-21T11:18:23;10.90;;;4.03;;
37593;SDS011;23441;50.856;6.076;2024-02-21T11:21:09;8.70;;;4.30;;
37593;SDS011;23441;50.856;6.076;2024-02-21T11:23:55;11.07;;;4.20;;
37593;SDS011;23441;50.856;6.076;2024-02-21T11:26:42;12.00;;;4.20;;
37593;SDS011;23441;50.856;6.076;2024-02-21T11:29:28;10.07;;;4.35;;
37593;SDS011;23441;50.856;6.076;2024-02-21T11:32:16;15.75;;;4.68;;
37593;SDS011;23441;50.856;6.076;2024-02-21T11:35:04;12.18;;;5.18;;
37593;SDS011;23441;50.856;6.076;2024-02-21T11:37:50;12.02;;;4.90;;
37593;SDS011;23441;50.856;6.076;2024-02-21T11:40:38;10.60;;;4.55;;
37593;SDS011;23441;50.856;6.076;2024-02-21T11:43:25;8.93;;;4.28;;
37593;SDS011;23441;50.856;6.076;2024-02-21T11:46:11;9.88;;;4.30;;
37593;SDS011;23441;50.856;6.076;2024-02-21T11:48:59;8.45;;;4.10;;
37593;SDS011;23441;50.856;6.076;2024-02-21T11:51:47;11.50;;;4.15;;
37593;SDS011;23441;50.856;6.076;2024-02-21T11:54:34;10.68;;;4.18;;
37593;SDS011;23441;50.856;6.076;2024-02-21T11:57:21;13.38;;;4.38;;
37593;SDS011;23441;50.856;6.076;2024-02-21T12:00:16;10.85;;;4.60;;
37593;SDS011;23441;50.856;6.076;2024-02-21T12:03:05;8.65;;;4.60;;
37593;SDS011;23441;50.856;6.076;2024-02-21T12:05:53;10.65;;;4.57;;
37593;SDS011;23441;50.856;6.076;2024-02-21T12:08:42;8.35;;;3.88;;
37593;SDS011;23441;50.856;6.076;2024-02-21T12:11:29;10.77;;;5.28;;
37593;SDS011;23441;50.856;6.076;2024-02-21T12:14:18;10.20;;;4.25;;
37593;SDS011;23441;50.856;6.076;2024-02-21T12:17:04;10.35;;;3.90;;
37593;SDS011;23441;50.856;6.076;2024-02-21T12:19:50;14.02;;;4.78;;
37593;SDS011;23441;50.856;6.076;2024-02-21T12:22:36;9.27;;;4.53;;
37593;SDS011;23441;50.856;6.076;2024-02-21T12:25:34;10.85;;;4.72;;
37593;SDS011;23441;50.856;6.076;2024-02-21T12:28:20;10.07;;;4.45;;
37593;SDS011;23441;50.856;6.076;2024-02-21T12:31:07;8.60;;;4.30;;
37593;SDS011;23441;50.856;6.076;2024-02-21T12:33:53;8.95;;;4.40;;
37593;SDS011;23441;50.856;6.076;2024-02-21T12:36:42;10.48;;;4.38;;
37593;SDS011;23441;50.856;6.076;2024-02-21T12:39:34;7.80;;;3.80;;
37593;SDS011;23441;50.856;6.076;2024-02-21T12:42:20;9.45;;;3.92;;
37593;SDS011;23441;50.856;6.076;2024-02-21T12:45:06;8.65;;;3.67;;
37593;SDS011;23441;50.856;6.076;2024-02-21T12:47:53;10.70;;;4.30;;
37593;SDS011;23441;50.856;6.076;2024-02-21T12:50:40;11.55;;;3.85;;
37593;SDS011;23441;50.856;6.076;2024-02-21T12:53:33;11.80;;;4.07;;
37593;SDS011;23441;50.856;6.076;2024-02-21T12:56:19;11.45;;;4.30;;
37593;SDS011;23441;50.856;6.076;2024-02-21T12:59:05;8.43;;;3.63;;
37593;SDS011;23441;50.856;6.076;2024-02-21T13:01:54;5.85;;;3.53;;
37593;SDS011;23441;50.856;6.076;2024-02-21T13:04:40;9.68;;;3.50;;
37593;SDS011;23441;50.856;6.076;2024-02-21T13:07:26;10.82;;;4.82;;
37593;SDS011;23441;50.856;6.076;2024-02-21T13:10:12;8.35;;;3.45;;
37593;SDS011;23441;50.856;6.076;2024-02-21T13:13:00;10.48;;;4.50;;
37593;SDS011;23441;50.856;6.076;2024-02-21T13:15:47;10.35;;;3.88;;
37593;SDS011;23441;50.856;6.076;2024-02-21T13:18:32;7.55;;;3.35;;
37593;SDS011;23441;50.856;6.076;2024-02-21T13:21:23;8.25;;;3.65;;
37593;SDS011;23441;50.856;6.076;2024-02-21T13:24:08;4.97;;;3.22;;
37593;SDS011;23441;50.856;6.076;2024-02-21T13:26:54;11.48;;;3.85;;
37593;SDS011;23441;50.856;6.076;2024-02-21T13:29:40;6.78;;;3.88;;
37593;SDS011;23441;50.856;6.076;2024-02-21T13:32:26;13.32;;;4.53;;
37593;SDS011;23441;50.856;6.076;2024-02-21T13:35:12;11.10;;;4.43;;
37593;SDS011;23441;50.856;6.076;2024-02-21T13:37:59;6.47;;;3.80;;
37593;SDS011;23441;50.856;6.076;2024-02-21T13:40:45;4.82;;;2.95;;
37593;SDS011;23441;50.856;6.076;2024-02-21T13:43:31;6.68;;;3.65;;
37593;SDS011;23441;50.856;6.076;2024-02-21T13:46:17;6.05;;;3.05;;
37593;SDS011;23441;50.856;6.076;2024-02-21T13:49:04;5.22;;;2.88;;
37593;SDS011;23441;50.856;6.076;2024-02-21T13:51:53;11.05;;;3.60;;
37593;SDS011;23441;50.856;6.076;2024-02-21T13:54:40;5.85;;;3.17;;
37593;SDS011;23441;50.856;6.076;2024-02-21T13:57:27;8.32;;;3.47;;
37593;SDS011;23441;50.856;6.076;2024-02-21T14:00:13;11.32;;;4.53;;
37593;SDS011;23441;50.856;6.076;2024-02-21T14:02:59;9.43;;;3.85;;
37593;SDS011;23441;50.856;6.076;2024-02-21T14:05:46;11.85;;;5.47;;
37593;SDS011;23441;50.856;6.076;2024-02-21T14:08:33;7.60;;;3.92;;
37593;SDS011;23441;50.856;6.076;2024-02-21T14:11:19;8.55;;;4.38;;
37593;SDS011;23441;50.856;6.076;2024-02-21T14:14:05;10.43;;;4.10;;
37593;SDS011;23441;50.856;6.076;2024-02-21T14:16:51;8.63;;;3.42;;
37593;SDS011;23441;50.856;6.076;2024-02-21T14:19:37;9.20;;;3.00;;
37593;SDS011;23441;50.856;6.076;2024-02-21T14:22:23;8.15;;;3.22;;
37593;SDS011;23441;50.856;6.076;2024-02-21T14:25:09;9.45;;;3.60;;
37593;SDS011;23441;50.856;6.076;2024-02-21T14:27:55;7.07;;;3.50;;
37593;SDS011;23441;50.856;6.076;2024-02-21T14:30:41;5.10;;;3.10;;
37593;SDS011;23441;50.856;6.076;2024-02-21T14:33:27;7.90;;;2.88;;
37593;SDS011;23441;50.856;6.076;2024-02-21T14:36:13;5.55;;;2.75;;
37593;SDS011;23441;50.856;6.076;2024-02-21T14:39:00;4.97;;;2.60;;
37593;SDS011;23441;50.856;6.076;2024-02-21T14:41:46;5.28;;;3.22;;
37593;SDS011;23441;50.856;6.076;2024-02-21T14:44:32;7.68;;;2.83;;
37593;SDS011;23441;50.856;6.076;2024-02-21T14:47:20;7.68;;;3.00;;
37593;SDS011;23441;50.856;6.076;2024-02-21T14:50:07;4.15;;;2.88;;
37593;SDS011;23441;50.856;6.076;2024-02-21T14:52:53;5.82;;;2.75;;
37593;SDS011;23441;50.856;6.076;2024-02-21T14:55:39;5.53;;;2.35;;
37593;SDS011;23441;50.856;6.076;2024-02-21T14:58:27;5.90;;;3.03;;
37593;SDS011;23441;50.856;6.076;2024-02-21T15:01:13;5.63;;;2.67;;
37593;SDS011;23441;50.856;6.076;2024-02-21T15:03:58;9.07;;;3.58;;
37593;SDS011;23441;50.856;6.076;2024-02-21T15:06:44;7.28;;;3.95;;
37593;SDS011;23441;50.856;6.076;2024-02-21T15:09:30;9.98;;;5.63;;
37593;SDS011;23441;50.856;6.076;2024-02-21T15:12:16;8.50;;;3.20;;
37593;SDS011;23441;50.856;6.076;2024-02-21T15:15:02;7.95;;;3.42;;
37593;SDS011;23441;50.856;6.076;2024-02-21T15:17:49;6.43;;;3.88;;
37593;SDS011;23441;50.856;6.076;2024-02-21T15:20:35;16.65;;;8.70;;
37593;SDS011;23441;50.856;6.076;2024-02-21T15:23:22;6.47;;;3.17;;
37593;SDS011;23441;50.856;6.076;2024-02-21T15:26:10;7.93;;;3.97;;
37593;SDS011;23441;50.856;6.076;2024-02-21T15:28:56;5.32;;;2.75;;
37593;SDS011;23441;50.856;6.076;2024-02-21T15:31:42;17.70;;;6.97;;
37593;SDS011;23441;50.856;6.076;2024-02-21T15:34:31;7.53;;;3.53;;
37593;SDS011;23441;50.856;6.076;2024-02-21T15:37:17;8.90;;;2.95;;
37593;SDS011;23441;50.856;6.076;2024-02-21T15:40:03;10.00;;;4.00;;
37593;SDS011;23441;50.856;6.076;2024-02-21T15:42:52;6.28;;;2.90;;
37593;SDS011;23441;50.856;6.076;2024-02-21T15:45:39;7.88;;;3.70;;
37593;SDS011;23441;50.856;6.076;2024-02-21T15:48:25;4.72;;;2.30;;
37593;SDS011;23441;50.856;6.076;2024-02-21T15:51:11;10.77;;;4.95;;
37593;SDS011;23441;50.856;6.076;2024-02-21T15:53:58;9.40;;;3.50;;
37593;SDS011;23441;50.856;6.076;2024-02-21T15:56:44;6.97;;;2.80;;
37593;SDS011;23441;50.856;6.076;2024-02-21T15:59:30;12.48;;;4.65;;
37593;SDS011;23441;50.856;6.076;2024-02-21T16:02:17;9.20;;;3.17;;
37593;SDS011;23441;50.856;6.076;2024-02-21T16:05:02;11.60;;;7.68;;
37593;SDS011;23441;50.856;6.076;2024-02-21T16:07:54;7.38;;;3.45;;
37593;SDS011;23441;50.856;6.076;2024-02-21T16:10:40;4.22;;;2.50;;
37593;SDS011;23441;50.856;6.076;2024-02-21T16:13:26;5.32;;;3.30;;
37593;SDS011;23441;50.856;6.076;2024-02-21T16:16:12;7.32;;;3.00;;
37593;SDS011;23441;50.856;6.076;2024-02-21T16:18:58;8.75;;;2.78;;
37593;SDS011;23441;50.856;6.076;2024-02-21T16:21:44;7.20;;;3.38;;
37593;SDS011;23441;50.856;6.076;2024-02-21T16:24:31;6.93;;;3.08;;
37593;SDS011;23441;50.856;6.076;2024-02-21T16:27:17;7.70;;;2.70;;
37593;SDS011;23441;50.856;6.076;2024-02-21T16:30:06;6.10;;;3.00;;
37593;SDS011;23441;50.856;6.076;2024-02-21T16:32:52;8.15;;;2.97;;
37593;SDS011;23441;50.856;6.076;2024-02-21T16:35:38;7.13;;;3.33;;